sensor_id;sensor_type;location;lat;lon;timestamp;P1;durP1;ratioP1;P2;durP2;ratioP2
16430;SDS011;8325;49.284;7.238;2023-01-01T05:01:58;5.82;;;2.58;;
16430;SDS011;8325;49.284;7.238;2023-01-01T05:06:10;3.15;;;2.30;;
16430;SDS011;8325;49.284;7.238;2023-01-01T05:10:22;3.28;;;2.28;;
16430;SDS011;8325;49.284;7.238;2023-01-01T05:14:34;2.85;;;2.17;;
16430;SDS011;8325;49.284;7.238;2023-01-01T05:18:46;5.28;;;2.20;;
16430;SDS011;8325;49.284;7.238;2023-01-01T05:22:58;5.03;;;2.25;;
16430;SDS011;8325;49.284;7.238;2023-01-01T05:27:09;3.97;;;2.28;;
16430;SDS011;8325;49.284;7.238;2023-01-01T05:31:24;4.00;;;2.35;;
16430;SDS011;8325;49.284;7.238;2023-01-01T05:35:37;3.28;;;2.15;;
16430;SDS011;8325;49.284;7.238;2023-01-01T05:39:49;4.93;;;2.30;;
16430;SDS011;8325;49.284;7.238;2023-01-01T05:44:01;4.18;;;2.53;;
16430;SDS011;8325;49.284;7.238;2023-01-01T05:48:13;4.50;;;2.50;;
16430;SDS011;8325;49.284;7.238;2023-01-01T05:52:25;4.85;;;2.00;;
16430;SDS011;8325;49.284;7.238;2023-01-01T05:56:37;4.03;;;2.17;;
16430;SDS011;8325;49.284;7.238;2023-01-01T06:00:49;4.32;;;2.22;;
16430;SDS011;8325;49.284;7.238;2023-01-01T06:05:00;4.53;;;2.30;;
16430;SDS011;8325;49.284;7.238;2023-01-01T06:09:12;2.22;;;1.88;;
16430;SDS011;8325;49.284;7.238;2023-01-01T06:13:23;5.00;;;3.10;;
16430;SDS011;8325;49.284;7.238;2023-01-01T06:17:35;4.07;;;2.38;;
16430;SDS011;8325;49.284;7.238;2023-01-01T06:21:48;2.28;;;2.05;;
16430;SDS011;8325;49.284;7.238;2023-01-01T06:26:03;4.38;;;2.35;;
16430;SDS011;8325;49.284;7.238;2023-01-01T06:30:35;6.30;;;2.22;;
16430;SDS011;8325;49.284;7.238;2023-01-01T06:34:47;6.65;;;2.47;;
16430;SDS011;8325;49.284;7.238;2023-01-01T06:38:58;5.97;;;2.08;;
16430;SDS011;8325;49.284;7.238;2023-01-01T06:43:10;7.20;;;2.58;;
16430;SDS011;8325;49.284;7.238;2023-01-01T06:47:22;3.10;;;2.22;;
16430;SDS011;8325;49.284;7.238;2023-01-01T06:51:38;6.18;;;2.28;;
16430;SDS011;8325;49.284;7.238;2023-01-01T06:55:51;4.30;;;2.45;;
16430;SDS011;8325;49.284;7.238;2023-01-01T07:00:07;7.15;;;2.33;;
16430;SDS011;8325;49.284;7.238;2023-01-01T07:04:19;7.45;;;2.20;;
16430;SDS011;8325;49.284;7.238;2023-01-01T07:08:31;7.70;;;2.42;;
16430;SDS011;8325;49.284;7.238;2023-01-01T07:12:43;2.95;;;2.00;;
16430;SDS011;8325;49.284;7.238;2023-01-01T07:16:56;3.35;;;2.10;;
16430;SDS011;8325;49.284;7.238;2023-01-01T07:25:42;4.18;;;2.10;;
16430;SDS011;8325;49.284;7.238;2023-01-01T07:29:58;6.13;;;2.58;;
16430;SDS011;8325;49.284;7.238;2023-01-01T07:34:17;5.60;;;2.38;;
16430;SDS011;8325;49.284;7.238;2023-01-01T07:38:33;4.55;;;2.42;;
16430;SDS011;8325;49.284;7.238;2023-01-01T07:42:45;4.60;;;2.05;;
16430;SDS011;8325;49.284;7.238;2023-01-01T07:47:00;5.50;;;2.65;;
16430;SDS011;8325;49.284;7.238;2023-01-01T07:51:13;4.20;;;2.20;;
16430;SDS011;8325;49.284;7.238;2023-01-01T07:55:25;6.43;;;2.58;;
16430;SDS011;8325;49.284;7.238;2023-01-01T07:59:37;2.58;;;1.85;;
16430;SDS011;8325;49.284;7.238;2023-01-01T08:03:49;3.70;;;2.00;;
16430;SDS011;8325;49.284;7.238;2023-01-01T08:08:02;6.10;;;2.30;;
16430;SDS011;8325;49.284;7.238;2023-01-01T08:12:14;3.97;;;2.13;;
16430;SDS011;8325;49.284;7.238;2023-01-01T08:16:25;4.68;;;2.13;;
16430;SDS011;8325;49.284;7.238;2023-01-01T08:20:37;4.43;;;2.25;;
16430;SDS011;8325;49.284;7.238;2023-01-01T08:24:48;3.38;;;2.10;;
16430;SDS011;8325;49.284;7.238;2023-01-01T08:29:04;3.50;;;2.28;;
16430;SDS011;8325;49.284;7.238;2023-01-01T08:33:16;6.30;;;2.85;;
16430;SDS011;8325;49.284;7.238;2023-01-01T08:37:28;7.47;;;2.47;;
16430;SDS011;8325;49.284;7.238;2023-01-01T08:41:39;5.70;;;2.28;;
16430;SDS011;8325;49.284;7.238;2023-01-01T08:45:51;6.53;;;2.35;;
16430;SDS011;8325;49.284;7.238;2023-01-01T08:50:02;5.78;;;2.20;;
16430;SDS011;8325;49.284;7.238;2023-01-01T08:54:14;7.15;;;2.75;;
16430;SDS011;8325;49.284;7.238;2023-01-01T08:58:26;4.55;;;2.30;;
16430;SDS011;8325;49.284;7.238;2023-01-01T09:02:37;4.88;;;2.20;;
16430;SDS011;8325;49.284;7.238;2023-01-01T09:06:49;5.88;;;2.90;;
16430;SDS011;8325;49.284;7.238;2023-01-01T09:11:01;4.95;;;2.25;;
16430;SDS011;8325;49.284;7.238;2023-01-01T09:15:14;6.57;;;2.33;;
16430;SDS011;8325;49.284;7.238;2023-01-01T09:19:27;5.60;;;2.70;;
16430;SDS011;8325;49.284;7.238;2023-01-01T09:23:39;4.97;;;2.40;;
16430;SDS011;8325;49.284;7.238;2023-01-01T09:27:57;5.05;;;2.00;;
16430;SDS011;8325;49.284;7.238;2023-01-01T09:32:09;5.22;;;2.17;;
16430;SDS011;8325;49.284;7.238;2023-01-01T09:40:47;4.32;;;2.28;;
16430;SDS011;8325;49.284;7.238;2023-01-01T09:49:52;5.40;;;2.35;;
16430;SDS011;8325;49.284;7.238;2023-01-01T09:54:09;6.80;;;3.95;;
16430;SDS011;8325;49.284;7.238;2023-01-01T09:58:32;7.93;;;2.83;;
16430;SDS011;8325;49.284;7.238;2023-01-01T10:02:54;6.57;;;3.50;;
16430;SDS011;8325;49.284;7.238;2023-01-01T10:16:45;5.07;;;2.42;;
16430;SDS011;8325;49.284;7.238;2023-01-01T10:21:14;3.60;;;2.17;;
16430;SDS011;8325;49.284;7.238;2023-01-01T10:25:36;3.17;;;2.40;;
16430;SDS011;8325;49.284;7.238;2023-01-01T10:29:50;3.67;;;2.28;;
16430;SDS011;8325;49.284;7.238;2023-01-01T10:38:30;6.20;;;2.92;;
16430;SDS011;8325;49.284;7.238;2023-01-01T10:42:49;5.80;;;2.22;;
16430;SDS011;8325;49.284;7.238;2023-01-01T10:47:18;6.40;;;2.72;;
16430;SDS011;8325;49.284;7.238;2023-01-01T10:51:36;8.43;;;2.60;;
16430;SDS011;8325;49.284;7.238;2023-01-01T10:55:59;5.25;;;2.67;;
16430;SDS011;8325;49.284;7.238;2023-01-01T11:00:23;5.85;;;2.67;;
16430;SDS011;8325;49.284;7.238;2023-01-01T11:04:37;3.55;;;2.20;;
16430;SDS011;8325;49.284;7.238;2023-01-01T11:08:49;4.90;;;2.40;;
16430;SDS011;8325;49.284;7.238;2023-01-01T11:13:03;6.07;;;2.67;;
16430;SDS011;8325;49.284;7.238;2023-01-01T11:17:29;9.13;;;2.40;;
16430;SDS011;8325;49.284;7.238;2023-01-01T11:21:47;6.47;;;2.67;;
16430;SDS011;8325;49.284;7.238;2023-01-01T11:34:33;7.07;;;2.60;;
16430;SDS011;8325;49.284;7.238;2023-01-01T11:39:03;5.50;;;2.63;;
16430;SDS011;8325;49.284;7.238;2023-01-01T11:43:19;4.75;;;2.95;;
16430;SDS011;8325;49.284;7.238;2023-01-01T11:47:41;6.85;;;3.13;;
16430;SDS011;8325;49.284;7.238;2023-01-01T11:51:53;6.40;;;2.63;;
16430;SDS011;8325;49.284;7.238;2023-01-01T11:56:13;4.47;;;2.50;;
16430;SDS011;8325;49.284;7.238;2023-01-01T12:00:28;6.40;;;2.42;;
16430;SDS011;8325;49.284;7.238;2023-01-01T12:04:48;4.97;;;2.53;;
16430;SDS011;8325;49.284;7.238;2023-01-01T12:13:44;8.52;;;3.10;;
16430;SDS011;8325;49.284;7.238;2023-01-01T12:22:26;7.38;;;2.72;;
16430;SDS011;8325;49.284;7.238;2023-01-01T12:31:23;8.90;;;3.00;;
16430;SDS011;8325;49.284;7.238;2023-01-01T12:54:00;8.02;;;3.33;;
16430;SDS011;8325;49.284;7.238;2023-01-01T13:02:37;8.35;;;3.03;;
16430;SDS011;8325;49.284;7.238;2023-01-01T13:07:00;9.73;;;3.55;;
16430;SDS011;8325;49.284;7.238;2023-01-01T13:11:16;5.45;;;3.38;;
16430;SDS011;8325;49.284;7.238;2023-01-01T13:19:51;7.20;;;4.28;;
16430;SDS011;8325;49.284;7.238;2023-01-01T13:24:25;7.97;;;4.53;;
16430;SDS011;8325;49.284;7.238;2023-01-01T13:28:37;12.13;;;4.50;;
16430;SDS011;8325;49.284;7.238;2023-01-01T13:33:09;7.95;;;4.35;;
16430;SDS011;8325;49.284;7.238;2023-01-01T13:37:40;7.88;;;3.60;;
16430;SDS011;8325;49.284;7.238;2023-01-01T13:41:53;8.85;;;3.90;;
16430;SDS011;8325;49.284;7.238;2023-01-01T13:46:05;7.90;;;4.00;;
16430;SDS011;8325;49.284;7.238;2023-01-01T13:59:43;8.00;;;4.35;;
16430;SDS011;8325;49.284;7.238;2023-01-01T14:03:58;10.38;;;3.60;;
16430;SDS011;8325;49.284;7.238;2023-01-01T14:08:28;7.15;;;3.20;;
16430;SDS011;8325;49.284;7.238;2023-01-01T14:12:40;8.68;;;3.25;;
16430;SDS011;8325;49.284;7.238;2023-01-01T14:16:52;6.85;;;3.15;;
16430;SDS011;8325;49.284;7.238;2023-01-01T14:21:14;6.13;;;2.90;;
16430;SDS011;8325;49.284;7.238;2023-01-01T14:25:28;11.43;;;4.45;;
16430;SDS011;8325;49.284;7.238;2023-01-01T14:29:40;12.38;;;5.82;;
16430;SDS011;8325;49.284;7.238;2023-01-01T14:33:52;7.80;;;4.88;;
16430;SDS011;8325;49.284;7.238;2023-01-01T14:38:22;6.75;;;3.40;;
16430;SDS011;8325;49.284;7.238;2023-01-01T14:42:35;3.88;;;2.83;;
16430;SDS011;8325;49.284;7.238;2023-01-01T14:46:47;7.53;;;2.72;;
16430;SDS011;8325;49.284;7.238;2023-01-01T14:51:01;4.97;;;2.63;;
16430;SDS011;8325;49.284;7.238;2023-01-01T14:55:17;7.10;;;2.70;;
16430;SDS011;8325;49.284;7.238;2023-01-01T14:59:29;5.00;;;3.63;;
16430;SDS011;8325;49.284;7.238;2023-01-01T15:08:18;7.47;;;4.50;;
16430;SDS011;8325;49.284;7.238;2023-01-01T15:12:32;9.68;;;4.03;;
16430;SDS011;8325;49.284;7.238;2023-01-01T15:16:57;6.55;;;3.53;;
16430;SDS011;8325;49.284;7.238;2023-01-01T15:21:14;8.38;;;4.35;;
16430;SDS011;8325;49.284;7.238;2023-01-01T15:25:28;8.25;;;3.97;;
16430;SDS011;8325;49.284;7.238;2023-01-01T15:29:46;7.32;;;4.55;;
16430;SDS011;8325;49.284;7.238;2023-01-01T15:33:57;9.05;;;3.92;;
16430;SDS011;8325;49.284;7.238;2023-01-01T15:38:10;8.05;;;3.95;;
16430;SDS011;8325;49.284;7.238;2023-01-01T15:46:49;7.55;;;3.50;;
16430;SDS011;8325;49.284;7.238;2023-01-01T15:51:14;6.43;;;4.00;;
16430;SDS011;8325;49.284;7.238;2023-01-01T15:55:30;7.18;;;4.00;;
16430;SDS011;8325;49.284;7.238;2023-01-01T15:59:44;7.53;;;3.45;;
16430;SDS011;8325;49.284;7.238;2023-01-01T16:08:36;6.18;;;3.15;;
16430;SDS011;8325;49.284;7.238;2023-01-01T16:12:47;11.45;;;3.80;;
16430;SDS011;8325;49.284;7.238;2023-01-01T16:16:59;6.38;;;3.35;;
16430;SDS011;8325;49.284;7.238;2023-01-01T16:21:12;6.93;;;3.25;;
16430;SDS011;8325;49.284;7.238;2023-01-01T16:25:23;8.90;;;4.57;;
16430;SDS011;8325;49.284;7.238;2023-01-01T16:29:35;11.35;;;4.53;;
16430;SDS011;8325;49.284;7.238;2023-01-01T16:33:54;7.25;;;3.63;;
16430;SDS011;8325;49.284;7.238;2023-01-01T16:38:07;5.65;;;2.70;;
16430;SDS011;8325;49.284;7.238;2023-01-01T16:42:22;8.55;;;3.50;;
16430;SDS011;8325;49.284;7.238;2023-01-01T16:46:33;7.60;;;5.13;;
16430;SDS011;8325;49.284;7.238;2023-01-01T16:50:48;8.63;;;3.83;;
16430;SDS011;8325;49.284;7.238;2023-01-01T16:55:01;5.93;;;3.60;;
16430;SDS011;8325;49.284;7.238;2023-01-01T16:59:12;6.03;;;3.60;;
16430;SDS011;8325;49.284;7.238;2023-01-01T17:03:25;7.38;;;3.30;;
16430;SDS011;8325;49.284;7.238;2023-01-01T17:07:37;5.82;;;3.50;;
16430;SDS011;8325;49.284;7.238;2023-01-01T17:11:48;9.57;;;3.90;;
16430;SDS011;8325;49.284;7.238;2023-01-01T17:16:03;5.10;;;2.90;;
16430;SDS011;8325;49.284;7.238;2023-01-01T17:20:15;10.27;;;3.78;;
16430;SDS011;8325;49.284;7.238;2023-01-01T17:24:27;6.68;;;3.75;;
16430;SDS011;8325;49.284;7.238;2023-01-01T17:28:38;7.45;;;3.22;;
16430;SDS011;8325;49.284;7.238;2023-01-01T17:32:50;7.22;;;3.72;;
16430;SDS011;8325;49.284;7.238;2023-01-01T17:37:01;6.72;;;2.95;;
16430;SDS011;8325;49.284;7.238;2023-01-01T17:41:13;7.10;;;4.15;;
16430;SDS011;8325;49.284;7.238;2023-01-01T17:45:26;8.18;;;4.10;;
16430;SDS011;8325;49.284;7.238;2023-01-01T17:49:37;8.77;;;5.32;;
16430;SDS011;8325;49.284;7.238;2023-01-01T17:53:50;6.40;;;4.25;;
16430;SDS011;8325;49.284;7.238;2023-01-01T17:58:01;9.68;;;3.75;;
16430;SDS011;8325;49.284;7.238;2023-01-01T18:02:13;8.88;;;4.00;;
16430;SDS011;8325;49.284;7.238;2023-01-01T18:06:25;8.57;;;3.58;;
16430;SDS011;8325;49.284;7.238;2023-01-01T18:10:37;5.40;;;3.03;;
16430;SDS011;8325;49.284;7.238;2023-01-01T18:14:48;8.75;;;3.80;;
16430;SDS011;8325;49.284;7.238;2023-01-01T18:19:01;5.40;;;3.15;;
16430;SDS011;8325;49.284;7.238;2023-01-01T18:23:15;7.28;;;3.15;;
16430;SDS011;8325;49.284;7.238;2023-01-01T18:27:26;10.65;;;4.15;;
16430;SDS011;8325;49.284;7.238;2023-01-01T18:31:38;9.57;;;3.65;;
16430;SDS011;8325;49.284;7.238;2023-01-01T18:35:54;7.47;;;2.83;;
16430;SDS011;8325;49.284;7.238;2023-01-01T18:40:10;8.10;;;3.15;;
16430;SDS011;8325;49.284;7.238;2023-01-01T18:44:25;7.90;;;2.38;;
16430;SDS011;8325;49.284;7.238;2023-01-01T18:48:48;5.35;;;3.08;;
16430;SDS011;8325;49.284;7.238;2023-01-01T18:57:53;8.35;;;3.53;;
16430;SDS011;8325;49.284;7.238;2023-01-01T19:06:44;6.80;;;3.08;;
16430;SDS011;8325;49.284;7.238;2023-01-01T19:10:57;3.92;;;2.83;;
16430;SDS011;8325;49.284;7.238;2023-01-01T19:15:17;8.07;;;2.70;;
16430;SDS011;8325;49.284;7.238;2023-01-01T19:19:31;5.93;;;2.30;;
16430;SDS011;8325;49.284;7.238;2023-01-01T19:23:49;5.90;;;2.65;;
16430;SDS011;8325;49.284;7.238;2023-01-01T19:32:25;6.88;;;2.28;;
16430;SDS011;8325;49.284;7.238;2023-01-01T19:36:37;5.53;;;2.05;;
16430;SDS011;8325;49.284;7.238;2023-01-01T19:40:49;6.15;;;1.90;;
16430;SDS011;8325;49.284;7.238;2023-01-01T19:45:01;4.07;;;1.85;;
16430;SDS011;8325;49.284;7.238;2023-01-01T19:49:12;4.78;;;2.15;;
16430;SDS011;8325;49.284;7.238;2023-01-01T19:53:24;9.43;;;2.17;;
16430;SDS011;8325;49.284;7.238;2023-01-01T19:57:36;7.97;;;2.00;;
16430;SDS011;8325;49.284;7.238;2023-01-01T20:01:47;4.03;;;2.38;;
16430;SDS011;8325;49.284;7.238;2023-01-01T20:06:18;5.43;;;2.30;;
16430;SDS011;8325;49.284;7.238;2023-01-01T20:10:30;6.20;;;2.20;;
16430;SDS011;8325;49.284;7.238;2023-01-01T20:14:41;6.07;;;1.80;;
16430;SDS011;8325;49.284;7.238;2023-01-01T20:18:53;6.55;;;2.47;;
16430;SDS011;8325;49.284;7.238;2023-01-01T20:23:05;7.05;;;2.33;;
16430;SDS011;8325;49.284;7.238;2023-01-01T20:27:16;8.80;;;1.92;;
16430;SDS011;8325;49.284;7.238;2023-01-01T20:31:28;4.63;;;1.92;;
16430;SDS011;8325;49.284;7.238;2023-01-01T20:35:40;5.00;;;2.28;;
16430;SDS011;8325;49.284;7.238;2023-01-01T20:40:10;3.30;;;1.75;;
16430;SDS011;8325;49.284;7.238;2023-01-01T20:44:22;9.65;;;2.30;;
16430;SDS011;8325;49.284;7.238;2023-01-01T20:48:34;6.95;;;1.85;;
16430;SDS011;8325;49.284;7.238;2023-01-01T20:52:45;6.90;;;2.60;;
16430;SDS011;8325;49.284;7.238;2023-01-01T20:56:57;9.57;;;2.13;;
16430;SDS011;8325;49.284;7.238;2023-01-01T21:01:08;3.50;;;2.05;;
16430;SDS011;8325;49.284;7.238;2023-01-01T21:05:20;5.85;;;2.53;;
16430;SDS011;8325;49.284;7.238;2023-01-01T21:09:31;3.72;;;2.30;;
16430;SDS011;8325;49.284;7.238;2023-01-01T21:13:43;5.38;;;1.92;;
16430;SDS011;8325;49.284;7.238;2023-01-01T21:17:55;5.15;;;2.20;;
16430;SDS011;8325;49.284;7.238;2023-01-01T21:22:09;5.03;;;2.10;;
16430;SDS011;8325;49.284;7.238;2023-01-01T21:26:24;5.47;;;2.60;;
16430;SDS011;8325;49.284;7.238;2023-01-01T21:30:47;4.45;;;2.13;;
16430;SDS011;8325;49.284;7.238;2023-01-01T21:35:00;5.88;;;2.10;;
16430;SDS011;8325;49.284;7.238;2023-01-01T21:39:12;4.50;;;2.20;;
16430;SDS011;8325;49.284;7.238;2023-01-01T21:43:28;6.35;;;2.03;;
16430;SDS011;8325;49.284;7.238;2023-01-01T21:47:42;3.72;;;1.90;;
16430;SDS011;8325;49.284;7.238;2023-01-01T21:51:57;6.35;;;2.30;;
16430;SDS011;8325;49.284;7.238;2023-01-01T21:56:25;5.68;;;2.28;;
16430;SDS011;8325;49.284;7.238;2023-01-01T22:00:38;6.85;;;2.20;;
16430;SDS011;8325;49.284;7.238;2023-01-01T22:04:50;4.55;;;2.03;;
16430;SDS011;8325;49.284;7.238;2023-01-01T22:09:06;8.27;;;2.38;;
16430;SDS011;8325;49.284;7.238;2023-01-01T22:13:24;6.30;;;2.30;;
16430;SDS011;8325;49.284;7.238;2023-01-01T22:17:37;6.78;;;2.38;;
16430;SDS011;8325;49.284;7.238;2023-01-01T22:21:49;6.53;;;2.20;;
16430;SDS011;8325;49.284;7.238;2023-01-01T22:26:24;5.95;;;2.10;;
